Data for 09/15/2016

Time Sea-Level Adjusted Pressure Absolute Pressure Temperature Relative Humidity Dew Point   
(mb) (inHg) (mb) (inHg) (C) (F) (%) (C) (F)
00:05 1021 30.15 851 25.13 7.9 46.3 89 6.2 43.1
00:10 1021 30.15 850 25.1 8 46.4 89 6.3 43.3
00:15 1021 30.15 851 25.13 8 46.4 89 6.3 43.3
00:20 1021 30.15 851 25.13 8 46.4 88 6.2 43.1
00:25 1021 30.15 850 25.1 8.1 46.6 87 6.1 43
00:30 1021 30.15 850 25.1 8.2 46.7 86 6.1 42.9
00:35 1021 30.15 850 25.1 8.3 46.9 86 6.1 43.1
00:40 1021 30.15 850 25.1 8.2 46.8 87 6.2 43.2
00:45 1021 30.15 850 25.1 8.1 46.5 88 6.2 43.2
00:50 1021 30.15 850 25.1 7.9 46.3 89 6.2 43.2
00:55 1021 30.15 850 25.1 7.9 46.2 89 6.2 43.1
01:00 1021 30.15 851 25.13 7.9 46.1 89 6.2 43.1
01:05 1021 30.15 851 25.13 7.6 45.8 90 6.1 43
01:10 1021 30.15 850 25.1 7.5 45.4 91 6.1 42.9
01:15 1021 30.15 850 25.1 7.6 45.7 90 6.1 42.9
01:20 1021 30.15 850 25.1 7.6 45.8 90 6.1 43
01:25 1021 30.15 850 25.1 7.7 45.8 90 6.1 43
01:30 1021 30.15 850 25.1 7.8 46 89 6.1 42.9
01:35 1021 30.15 850 25.1 7.7 45.9 89 6 42.9
01:40 1021 30.15 851 25.13 7.6 45.7 89 6 42.8
01:45 1021 30.15 851 25.13 7.5 45.5 90 5.9 42.7
01:50 1021 30.15 850 25.1 7.6 45.7 89 5.9 42.7
01:55 1021 30.15 850 25.1 7.6 45.7 89 5.9 42.7
02:00 1021 30.15 850 25.1 7.7 45.8 89 5.9 42.7
02:05 1021 30.15 850 25.1 7.7 45.8 89 5.9 42.7
02:10 1021 30.15 850 25.1 7.6 45.6 89 5.9 42.5
02:15 1021 30.15 850 25.1 7.6 45.6 89 5.8 42.5
02:20 1021 30.15 850 25.1 7.6 45.7 89 5.8 42.5
02:25 1021 30.15 850 25.1 7.6 45.7 89 5.9 42.6
02:30 1021 30.15 850 25.1 7.6 45.7 89 5.9 42.6
02:35 1021 30.15 850 25.1 7.6 45.8 88 5.8 42.5
02:40 1021 30.15 850 25.1 7.6 45.6 89 5.8 42.5
02:45 1021 30.15 850 25.1 7.5 45.4 89 5.8 42.5
02:50 1021 30.15 850 25.1 7.2 45 90 5.7 42.3
02:55 1021 30.15 850 25.1 7.2 44.9 91 5.7 42.3
03:00 1021 30.15 850 25.1 7.2 45 91 5.8 42.4
03:05 1021 30.15 850 25.1 7.3 45.1 90 5.8 42.4
03:10 1021 30.15 850 25.1 7.4 45.3 89 5.8 42.4
03:15 1021 30.15 851 25.13 7.4 45.4 89 5.8 42.4
03:20 1021 30.15 851 25.13 7.4 45.2 89 5.7 42.3
03:25 1021 30.15 850 25.1 7.4 45.4 89 5.7 42.3
03:30 1021 30.15 850 25.1 7.5 45.5 88 5.7 42.2
03:35 1021 30.15 850 25.1 7.6 45.6 88 5.7 42.3
03:40 1021 30.15 850 25.1 7.8 46 86 5.6 42.2
03:45 1021 30.15 850 25.1 7.9 46.3 86 5.7 42.3
03:50 1021 30.15 850 25.1 7.9 46.1 87 5.8 42.4
03:55 1021 30.15 850 25.1 7.7 45.9 87 5.8 42.4
04:00 1021 30.15 850 25.1 7.6 45.6 88 5.8 42.4
04:05 1021 30.15 850 25.1 7.5 45.4 89 5.7 42.2
04:10 1021 30.15 851 25.13 7.4 45.3 89 5.7 42.3
04:15 1021 30.15 851 25.13 7.4 45.3 89 5.6 42.2
04:20 1021 30.15 851 25.13 7.3 45.2 89 5.6 42
04:25 1021 30.15 851 25.13 7.5 45.5 88 5.6 42.1
04:30 1021 30.15 851 25.13 7.5 45.6 87 5.5 42
04:35 1021 30.15 851 25.13 7.7 45.8 86 5.5 41.9
04:40 1021 30.15 851 25.13 7.8 46 86 5.5 42
04:45 1021 30.15 851 25.13 7.7 45.9 87 5.6 42.1
04:50 1021 30.15 851 25.13 7.6 45.6 87 5.6 42.1
04:55 1021 30.15 851 25.13 7.4 45.3 88 5.6 42
05:00 1022 30.18 851 25.13 7.2 45 89 5.5 41.9
05:05 1022 30.18 851 25.13 7.2 44.9 89 5.5 41.8
05:10 1022 30.18 851 25.13 7.1 44.8 89 5.4 41.8
05:15 1022 30.18 851 25.13 7 44.6 89 5.4 41.7
05:20 1022 30.18 851 25.13 6.8 44.3 90 5.3 41.5
05:25 1022 30.18 851 25.13 6.7 44 90 5.2 41.4
05:30 1022 30.18 851 25.13 6.6 43.9 91 5.2 41.3
05:35 1022 30.18 851 25.13 6.6 43.9 91 5.2 41.4
05:40 1022 30.18 851 25.13 6.6 43.9 91 5.2 41.4
05:45 1022 30.18 851 25.13 6.6 43.9 91 5.2 41.4
05:50 1022 30.18 851 25.13 6.7 44 91 5.2 41.4
05:55 1022 30.18 851 25.13 6.7 44.1 90 5.2 41.4
06:00 1022 30.18 851 25.13 6.6 43.9 90 5.1 41.2
06:05 1022 30.18 851 25.13 6.6 44 90 5.1 41.2
06:10 1022 30.18 851 25.13 6.7 44.1 89 5.1 41.1
06:15 1022 30.18 851 25.13 6.9 44.4 88 5.1 41.2
06:20 1022 30.18 851 25.13 7 44.6 87 5 41
06:25 1022 30.18 851 25.13 7 44.6 88 5.1 41.2
06:30 1022 30.18 851 25.13 7 44.5 88 5.1 41.1
06:35 1022 30.18 851 25.13 7 44.6 87 5 41
06:40 1022 30.18 851 25.13 7.2 44.9 87 5.1 41.2
06:45 1022 30.18 852 25.16 7.2 44.9 86 5 41
06:50 1022 30.18 852 25.16 7.1 44.7 86 4.9 40.8
06:55 1022 30.18 852 25.16 6.9 44.5 86 4.8 40.7
07:00 1022 30.18 852 25.16 7.1 44.7 86 4.9 40.8
07:05 1022 30.18 852 25.16 7.1 44.8 85 4.8 40.7
07:10 1022 30.18 852 25.16 7 44.7 86 4.8 40.6
07:15 1022 30.18 852 25.16 7.2 44.9 84 4.6 40.3
07:20 1022 30.18 852 25.16 7.4 45.4 84 4.8 40.7
07:25 1022 30.18 852 25.16 7.6 45.7 83 5 41
07:30 1023 30.21 852 25.16 7.7 45.8 83 5 41
07:35 1023 30.21 852 25.16 7.7 45.8 84 5.1 41.2
07:40 1023 30.21 852 25.16 7.6 45.7 84 5.2 41.3
07:45 1023 30.21 852 25.16 7.7 45.8 84 5.2 41.3
07:50 1023 30.21 852 25.16 7.9 46.3 84 5.4 41.6
07:55 1023 30.21 852 25.16 8 46.5 83 5.4 41.7
08:00 1023 30.21 852 25.16 8.1 46.5 83 5.4 41.8
08:05 1023 30.21 852 25.16 8.3 46.9 83 5.5 41.9
08:10 1023 30.21 852 25.16 8.4 47.2 83 5.6 42.2
08:15 1023 30.21 852 25.16 8.3 47 83 5.6 42.1
08:20 1023 30.21 852 25.16 8.4 47.2 82 5.6 42.1
08:25 1023 30.21 852 25.16 8.7 47.6 82 5.8 42.5
08:30 1023 30.21 852 25.16 8.9 48 82 6 42.8
08:35 1023 30.21 852 25.16 9 48.2 82 6.1 43
08:40 1023 30.21 852 25.16 9.3 48.7 81 6.2 43.1
08:45 1023 30.21 852 25.16 9.6 49.2 80 6.2 43.2
08:50 1023 30.21 852 25.16 9.8 49.7 79 6.4 43.5
08:55 1023 30.21 852 25.16 9.8 49.7 79 6.4 43.5
09:00 1023 30.21 852 25.16 9.8 49.7 78 6.3 43.3
09:05 1023 30.21 852 25.16 10.1 50.1 77 6.2 43.2
09:10 1023 30.21 852 25.16 10.3 50.6 77 6.5 43.8
09:15 1023 30.21 852 25.16 10.6 51 76 6.6 43.9
09:20 1023 30.21 852 25.16 10.8 51.5 75 6.5 43.7
09:25 1023 30.21 852 25.16 11.3 52.4 73 6.7 44.1
09:30 1023 30.21 852 25.16 11.7 53 73 7 44.6
09:35 1023 30.21 852 25.16 11.5 52.7 72 6.6 43.9
09:40 1023 30.21 852 25.16 11.4 52.5 73 6.7 44
09:45 1023 30.21 852 25.16 11.9 53.3 71 6.7 44.1
09:50 1023 30.21 852 25.16 11.8 53.3 69 6.5 43.7
09:55 1023 30.21 852 25.16 11.4 52.6 70 6.2 43.2
10:00 1023 30.21 852 25.16 11.5 52.8 71 6.5 43.7
10:05 1023 30.21 852 25.16 11.9 53.4 70 6.7 44.1
10:10 1023 30.21 852 25.16 11.9 53.5 70 6.7 44.1
10:15 1023 30.21 852 25.16 11.9 53.3 70 6.6 43.9
10:20 1023 30.21 852 25.16 11.1 51.9 76 7 44.6
10:25 1023 30.21 852 25.16 11 51.9 75 6.8 44.3
10:30 1023 30.21 852 25.16 11.6 52.9 71 6.5 43.7
10:35 1023 30.21 852 25.16 11.7 53 74 7.2 45
10:40 1023 30.21 852 25.16 11.6 52.8 72 6.8 44.3
10:45 1023 30.21 852 25.16 12 53.7 70 6.8 44.2
10:50 1023 30.21 852 25.16 12.5 54.5 68 6.8 44.3
10:55 1023 30.21 852 25.16 12.9 55.1 66 6.7 44.1
11:00 1023 30.21 852 25.16 13 55.3 64 6.4 43.5
11:05 1023 30.21 852 25.16 13.1 55.6 64 6.5 43.6
11:10 1023 30.21 852 25.16 13.5 56.2 62 6.3 43.4
11:15 1023 30.21 852 25.16 14.1 57.4 59 6.4 43.4
11:20 1023 30.21 852 25.16 14.5 58.1 55 5.6 42
11:25 1023 30.21 852 25.16 14.2 57.5 57 5.9 42.6
11:30 1023 30.21 852 25.16 14.4 57.9 58 6.3 43.3
11:35 1023 30.21 852 25.16 14.3 57.8 56 5.6 42.2
11:40 1023 30.21 852 25.16 14.2 57.5 56 5.5 42
11:45 1023 30.21 852 25.16 14.3 57.7 57 5.9 42.7
11:50 1023 30.21 852 25.16 13.6 56.5 59 5.8 42.5
11:55 1023 30.21 852 25.16 13.4 56.2 57 5.3 41.5
12:00 1023 30.21 852 25.16 13.4 56 54 4.4 39.9
12:05 1023 30.21 852 25.16 13.3 56 55 4.5 40.1
12:10 1023 30.21 852 25.16 13.8 56.8 55 4.9 40.8
12:15 1023 30.21 852 25.16 14.1 57.3 56 5.4 41.7
12:20 1023 30.21 852 25.16 14.1 57.4 53 4.7 40.4
12:25 1023 30.21 852 25.16 14.5 58.1 53 5 41.1
12:30 1023 30.21 852 25.16 14.3 57.7 55 5.5 41.9
12:35 1023 30.21 852 25.16 14.1 57.3 52 4.6 40.2
12:40 1023 30.21 852 25.16 14.1 57.3 54 5 41
12:45 1023 30.21 852 25.16 14.3 57.7 52 4.6 40.3
12:50 1023 30.21 852 25.16 14.4 57.9 52 4.7 40.4
12:55 1023 30.21 852 25.16 14.8 58.7 49 4.4 40
13:00 1023 30.21 852 25.16 15.1 59.2 49 4.5 40.2
13:05 1023 30.21 852 25.16 14.9 58.7 50 4.7 40.5
13:10 1023 30.21 852 25.16 14.6 58.4 49 4.1 39.3
13:15 1023 30.21 852 25.16 14.2 57.6 52 4.5 40
13:20 1023 30.21 852 25.16 14.5 58.1 48 3.8 38.8
13:25 1023 30.21 852 25.16 15.3 59.5 46 4 39.1
13:30 1023 30.21 852 25.16 15.3 59.6 46 3.9 39
13:35 1023 30.21 852 25.16 16.3 61.3 43 3.9 39
13:40 1023 30.21 852 25.16 16.4 61.5 42 3.7 38.7
13:45 1023 30.21 852 25.16 16.7 62.1 42 3.8 38.9
13:50 1023 30.21 852 25.16 16.6 61.9 44 4.4 39.9
13:55 1023 30.21 852 25.16 16 60.8 44 3.9 39.1
14:00 1023 30.21 852 25.16 15.9 60.6 45 4.2 39.5
14:05 1023 30.21 852 25.16 16.1 61 42 3.2 37.8
14:10 1023 30.21 852 25.16 17.1 62.9 39 3.2 37.8
14:15 1023 30.21 852 25.16 17.3 63.1 40 3.7 38.6
14:20 1022 30.18 852 25.16 17.3 63.2 39 3.4 38.2
14:25 1022 30.18 852 25.16 17.5 63.5 41 4.4 39.9
14:30 1022 30.18 852 25.16 17.5 63.6 39 3.4 38.1
14:35 1022 30.18 852 25.16 17.3 63.1 39 3.3 37.9
14:40 1022 30.18 852 25.16 17.3 63.1 40 3.5 38.3
14:45 1022 30.18 852 25.16 17.8 64 36 2.7 36.8
14:50 1022 30.18 852 25.16 18.6 65.4 34 2.7 36.9
14:55 1022 30.18 852 25.16 18.4 65 35 2.6 36.6
15:00 1022 30.18 852 25.16 18.2 64.8 35 2.8 37.1
15:05 1022 30.18 851 25.13 19 66.3 33 2.4 36.3
15:10 1022 30.18 851 25.13 18.5 65.2 35 2.8 37
15:15 1022 30.18 851 25.13 19 66.1 33 2.4 36.4
15:20 1022 30.18 851 25.13 19.2 66.5 32 2.1 35.7
15:25 1022 30.18 851 25.13 19 66.1 33 2.3 36.2
15:30 1022 30.18 851 25.13 18.7 65.7 34 2.8 37
15:35 1022 30.18 851 25.13 18.7 65.6 33 2.1 35.8
15:40 1022 30.18 851 25.13 19 66.1 32 2.2 36
15:45 1022 30.18 851 25.13 19.3 66.8 32 2.4 36.2
15:50 1022 30.18 851 25.13 19.1 66.4 31 1.8 35.3
15:55 1022 30.18 851 25.13 18.8 65.8 32 1.7 35.1
16:00 1022 30.18 851 25.13 18.9 66 31 1.6 34.9
16:05 1022 30.18 851 25.13 18.9 66 32 1.9 35.5
16:10 1022 30.18 851 25.13 18.8 65.8 31 1.3 34.3
16:15 1022 30.18 851 25.13 18.8 65.8 31 1.6 34.8
16:20 1022 30.18 851 25.13 18.9 65.9 30 1.2 34.2
16:25 1022 30.18 851 25.13 18.8 65.9 29 0.7 33.3
16:30 1022 30.18 851 25.13 18.9 66 30 1.1 34
16:35 1022 30.18 851 25.13 18.6 65.5 30 0.8 33.4
16:40 1022 30.18 851 25.13 18.8 65.9 29 0.7 33.3
16:45 1022 30.18 851 25.13 18.8 65.8 31 1.3 34.4
16:50 1022 30.18 851 25.13 18.7 65.7 31 1.5 34.6
16:55 1022 30.18 851 25.13 18.2 64.7 32 1.2 34.1
17:00 1022 30.18 851 25.13 17.8 64 32 1 33.8
17:05 1022 30.18 851 25.13 18.3 64.9 30 0.6 33.2
17:10 1022 30.18 851 25.13 18.6 65.4 30 0.6 33.1
17:15 1022 30.18 851 25.13 18.8 65.9 30 1.2 34.1
17:20 1022 30.18 851 25.13 18.6 65.5 31 1.3 34.4
17:25 1022 30.18 851 25.13 18.1 64.6 32 1.2 34.2
17:30 1022 30.18 851 25.13 17.7 63.8 33 1.2 34.2
17:35 1022 30.18 851 25.13 17.4 63.4 33 1.1 34
17:40 1022 30.18 851 25.13 17.3 63.1 34 1.3 34.3
17:45 1022 30.18 851 25.13 17.1 62.8 34 1.3 34.3
17:50 1022 30.18 851 25.13 17.1 62.7 34 1 33.8
17:55 1022 30.18 851 25.13 17 62.6 33 0.8 33.5
18:00 1022 30.18 851 25.13 16.9 62.5 34 1.1 34
18:05 1022 30.18 851 25.13 16.8 62.3 37 2.1 35.8
18:10 1022 30.18 851 25.13 16.7 62.1 34 1 33.7
18:15 1022 30.18 851 25.13 16.6 61.9 34 0.7 33.3
18:20 1022 30.18 851 25.13 16.4 61.6 35 1.1 33.9
18:25 1022 30.18 851 25.13 16.4 61.5 36 1.2 34.2
18:30 1022 30.18 851 25.13 16.3 61.4 36 1.3 34.4
18:35 1022 30.18 851 25.13 16.2 61.2 37 1.8 35.2
18:40 1022 30.18 851 25.13 15.5 59.9 47 4.4 39.9
18:45 1022 30.18 852 25.16 14.6 58.2 49 4 39.2
18:50 1022 30.18 852 25.16 14.1 57.4 50 4 39.2
18:55 1022 30.18 852 25.16 13.5 56.3 52 4 39.3
19:00 1022 30.18 852 25.16 12.9 55.2 54 3.9 39
19:05 1022 30.18 852 25.16 12.4 54.4 55 3.7 38.7
19:10 1022 30.18 852 25.16 12.1 53.9 55 3.4 38.1
19:15 1022 30.18 852 25.16 12 53.5 56 3.4 38.1
19:20 1023 30.21 852 25.16 11.7 53.1 57 3.5 38.4
19:25 1023 30.21 852 25.16 11.4 52.4 59 3.7 38.7
19:30 1023 30.21 852 25.16 10.9 51.7 62 4 39.2
19:35 1023 30.21 852 25.16 10.6 51 62 3.7 38.7
19:40 1023 30.21 852 25.16 10.4 50.7 62 3.6 38.4
19:45 1023 30.21 852 25.16 10.4 50.7 59 2.8 37
19:50 1023 30.21 852 25.16 10.6 51.1 57 2.6 36.7
19:55 1023 30.21 852 25.16 10.7 51.3 57 2.6 36.6
20:00 1023 30.21 852 25.16 10.7 51.2 57 2.5 36.5
20:05 1023 30.21 852 25.16 10.7 51.3 56 2.4 36.4
20:10 1023 30.21 852 25.16 10.4 50.8 59 2.7 36.9
20:15 1023 30.21 852 25.16 10.2 50.3 59 2.5 36.5
20:20 1023 30.21 852 25.16 9.9 49.9 58 2.2 35.9
20:25 1023 30.21 852 25.16 10.2 50.3 56 2 35.5
20:30 1023 30.21 852 25.16 10.5 50.8 56 2 35.6
20:35 1023 30.21 852 25.16 10.4 50.7 56 2.1 35.7
20:40 1023 30.21 852 25.16 10.2 50.3 56 2 35.5
20:45 1023 30.21 852 25.16 10.1 50.1 57 2 35.7
20:50 1023 30.21 852 25.16 10 49.9 58 2.1 35.8
20:55 1023 30.21 852 25.16 9.9 49.8 58 2 35.6
21:00 1023 30.21 852 25.16 9.8 49.7 59 2.1 35.8
21:05 1023 30.21 852 25.16 9.7 49.4 58 2 35.5
21:10 1023 30.21 852 25.16 9.6 49.3 59 2 35.7
21:15 1023 30.21 852 25.16 9.5 49 60 2 35.7
21:20 1023 30.21 852 25.16 9.4 48.9 59 1.9 35.4
21:25 1023 30.21 852 25.16 9.3 48.7 60 1.9 35.4
21:30 1023 30.21 852 25.16 9.3 48.7 59 1.8 35.2
21:35 1023 30.21 852 25.16 9.3 48.7 59 1.8 35.2
21:40 1023 30.21 852 25.16 9.5 49 58 1.7 35.1
21:45 1023 30.21 852 25.16 9.6 49.3 58 1.8 35.3
21:50 1023 30.21 852 25.16 9.6 49.2 58 1.8 35.3
21:55 1023 30.21 852 25.16 9.5 49 59 1.8 35.2
22:00 1023 30.21 852 25.16 9.3 48.8 58 1.6 34.9
22:05 1023 30.21 852 25.16 9.2 48.5 60 1.9 35.3
22:10 1023 30.21 852 25.16 8.9 48.1 60 1.6 34.9
22:15 1023 30.21 852 25.16 9.1 48.3 59 1.6 34.9
22:20 1023 30.21 852 25.16 9 48.3 60 1.6 35
22:25 1023 30.21 852 25.16 9.1 48.3 61 1.9 35.4
22:30 1023 30.21 852 25.16 8.7 47.7 61 1.6 34.9
22:35 1023 30.21 852 25.16 8.8 47.8 60 1.5 34.7
22:40 1023 30.21 852 25.16 8.7 47.6 60 1.4 34.6
22:45 1023 30.21 852 25.16 8.8 47.8 60 1.4 34.5
22:50 1023 30.21 852 25.16 8.8 47.9 60 1.5 34.7
22:55 1023 30.21 852 25.16 8.7 47.7 60 1.4 34.5
23:00 1023 30.21 852 25.16 8.7 47.7 59 1.2 34.2
23:05 1023 30.21 852 25.16 8.8 47.8 59 1.1 34
23:10 1023 30.21 852 25.16 8.8 47.9 58 1 33.8
23:15 1023 30.21 852 25.16 9 48.2 58 1.2 34.2
23:20 1023 30.21 852 25.16 8.8 47.8 59 1.3 34.4
23:25 1023 30.21 852 25.16 8.6 47.4 59 1.1 33.9
23:30 1023 30.21 852 25.16 8.6 47.5 58 0.9 33.6
23:35 1023 30.21 852 25.16 8.8 47.9 58 0.9 33.7
23:40 1023 30.21 852 25.16 8.9 47.9 58 1.1 34
23:45 1023 30.21 852 25.16 8.7 47.7 59 1.1 34
23:50 1023 30.21 852 25.16 8.6 47.5 59 1 33.7
23:55 1023 30.21 852 25.16 8.6 47.4 59 1.1 33.9
24:00 1023 30.21 852 25.16 8.5 47.2 59 1 33.8